Time;durP1;ratioP1;P1;durP2;ratioP2;P2;SDS_P1;SDS_P2;PMS_P1;PMS_P2;Temp;Humidity;BMP_temperature;BMP_pressure;BME280_temperature;BME280_humidity;BME280_pressure;Samples;Min_cycle;Max_cycle;Signal;HPM_P1;HPM_P2
2022/04/12 00:01:11;;;;;;;52.23;25.25;;;;;;;4.87;74.27;99504.04;1724423;82;20972;-36
2022/04/12 00:03:37;;;;;;;53.17;24.95;;;;;;;4.87;74.20;99504.04;1724379;83;21516;-38
2022/04/12 00:06:03;;;;;;;53.33;24.65;;;;;;;4.87;74.04;99504.50;1724331;83;21516;-36
2022/04/12 00:08:29;;;;;;;58.15;25.02;;;;;;;4.84;74.01;99505.45;1724369;83;20991;-40
2022/04/12 00:10:55;;;;;;;51.68;24.45;;;;;;;4.84;74.48;99498.94;1699563;83;21461;-38
2022/04/12 00:13:22;;;;;;;49.20;24.25;;;;;;;4.86;74.12;99498.44;1724287;83;21007;-37
2022/04/12 00:15:52;;;;;;;52.48;22.70;;;;;;;4.86;74.08;99494.96;1724551;82;20992;-37
2022/04/12 00:21:00;;;;;;;45.90;22.22;;;;;;;4.79;74.21;99493.84;1724331;83;20128;-37
2022/04/12 00:23:25;;;;;;;46.90;21.85;;;;;;;4.79;74.16;99490.39;1724290;83;20991;-37
2022/04/12 00:25:53;;;;;;;50.75;22.73;;;;;;;4.75;74.44;99487.02;1724364;83;20991;-36
2022/04/12 00:28:20;;;;;;;47.85;23.07;;;;;;;4.72;74.53;99483.19;1724443;83;21464;-37
2022/04/12 00:30:46;;;;;;;47.73;22.90;;;;;;;4.69;74.88;99490.23;1724476;83;20996;-37
2022/04/12 00:33:11;;;;;;;50.03;23.95;;;;;;;4.67;74.75;99494.64;1724355;83;21422;-38
2022/04/12 00:35:37;;;;;;;48.15;25.60;;;;;;;4.61;75.25;99491.77;1724391;83;20995;-36
2022/04/12 00:38:22;;;;;;;53.15;24.72;;;;;;;4.58;75.39;99494.02;1724311;83;20995;-37
2022/04/12 00:43:37;;;;;;;55.67;26.90;;;;;;;4.52;76.24;99488.95;1822592;79;22637;-39
2022/04/12 00:46:03;;;;;;;51.28;25.90;;;;;;;4.43;76.15;99493.11;1794717;80;21007;-36
2022/04/12 00:48:31;;;;;;;53.33;26.35;;;;;;;4.39;76.05;99493.64;1794780;80;21507;-36
2022/04/12 00:50:58;;;;;;;;;;;;;;;4.37;76.07;99495.44;1797431;80;21002;-38
2022/04/12 00:53:25;;;;;;;62.05;28.35;;;;;;;4.29;76.52;99498.67;1794878;79;20134;-38
2022/04/12 00:55:51;;;;;;;52.88;26.10;;;;;;;4.25;76.97;99504.87;1794950;80;21522;-38
2022/04/12 00:58:18;;;;;;;53.85;26.50;;;;;;;4.23;76.80;99508.80;1794853;80;20994;-38
2022/04/12 01:00:44;;;;;;;55.00;25.87;;;;;;;4.20;76.70;99507.61;1794996;80;20970;-37
2022/04/12 01:03:10;;;;;;;54.83;25.50;;;;;;;4.12;77.11;99506.93;1794698;80;21630;-38
2022/04/12 01:05:38;;;;;;;58.33;25.92;;;;;;;4.08;77.14;99505.77;1794819;80;21466;-39
2022/04/12 01:08:04;;;;;;;54.53;25.00;;;;;;;4.04;77.19;99510.19;1794724;80;21014;-37
2022/04/12 01:10:34;;;;;;;51.98;25.68;;;;;;;3.99;77.30;99504.24;1794828;80;20955;-38
2022/04/12 01:13:01;;;;;;;54.33;26.65;;;;;;;3.95;77.67;99502.16;1794793;80;21010;-38
2022/04/12 01:15:28;;;;;;;58.85;26.85;;;;;;;3.94;77.44;99505.64;1795109;80;21128;-37
2022/04/12 01:17:54;;;;;;;56.60;25.30;;;;;;;3.92;77.41;99507.89;1794852;80;20995;-37
2022/04/12 01:20:29;;;;;;;52.58;25.00;;;;;;;3.91;77.30;99506.16;1794840;80;21551;-39
2022/04/12 01:22:58;;;;;;;52.85;24.60;;;;;;;3.88;77.75;99500.60;1792354;80;20987;-38
2022/04/12 01:25:23;;;;;;;53.52;25.15;;;;;;;3.87;77.39;99500.18;1794555;80;20958;-37
2022/04/12 01:27:49;;;;;;;49.77;24.57;;;;;;;3.85;77.76;99500.67;1794724;80;20997;-38
2022/04/12 01:30:16;;;;;;;51.85;25.68;;;;;;;3.79;77.77;99504.73;1794701;80;21032;-38
2022/04/12 01:32:41;;;;;;;52.70;26.35;;;;;;;3.76;78.05;99510.84;1794771;80;21527;-39
2022/04/12 01:35:08;;;;;;;51.25;24.45;;;;;;;3.74;77.95;99508.73;1794826;80;20985;-38
2022/04/12 01:37:34;;;;;;;51.20;24.02;;;;;;;3.73;78.08;99503.14;1794823;80;21029;-37
2022/04/12 01:40:01;;;;;;;45.98;24.02;;;;;;;3.70;78.12;99505.80;1794704;80;20990;-38
2022/04/12 01:42:26;;;;;;;56.08;27.02;;;;;;;3.63;77.97;99506.84;1792312;80;21019;-37
2022/04/12 01:44:52;;;;;;;61.48;27.25;;;;;;;3.61;78.39;99508.16;1789423;80;20994;-39
2022/04/12 01:47:18;;;;;;;54.80;27.00;;;;;;;3.63;78.30;99512.03;1789407;80;20979;-38
2022/04/12 01:49:44;;;;;;;53.23;25.43;;;;;;;3.58;78.73;99502.19;1789539;80;21029;-38
2022/04/12 01:52:10;;;;;;;51.20;24.82;;;;;;;3.56;78.41;99506.11;1789393;80;21487;-37
2022/04/12 01:54:37;;;;;;;53.28;25.32;;;;;;;3.52;78.44;99508.84;1788949;80;20998;-40
2022/04/12 01:57:04;;;;;;;52.43;25.20;;;;;;;3.49;78.72;99508.90;1788877;80;20989;-39
2022/04/12 01:59:29;;;;;;;56.42;25.97;;;;;;;3.44;78.64;99512.47;1789055;80;20990;-38
2022/04/12 02:01:55;;;;;;;52.17;26.52;;;;;;;3.41;78.81;99515.58;1789069;80;21046;-39
2022/04/12 02:04:21;;;;;;;54.55;25.72;;;;;;;3.38;79.12;99508.69;1788844;80;21003;-36
2022/04/12 02:06:47;;;;;;;55.60;26.20;;;;;;;3.38;78.94;99516.48;1788846;80;20975;-37
2022/04/12 02:09:12;;;;;;;55.73;28.10;;;;;;;3.35;79.04;99514.42;1788827;80;21075;-38
2022/04/12 02:11:38;;;;;;;56.53;25.97;;;;;;;3.36;79.21;99523.92;1788840;80;20970;-38
2022/04/12 02:14:05;;;;;;;54.38;27.22;;;;;;;3.37;79.40;99519.14;1788811;80;21034;-38
2022/04/12 02:16:30;;;;;;;51.73;27.07;;;;;;;3.36;79.49;99523.47;1788930;80;20991;-37
2022/04/12 02:18:56;;;;;;;48.25;26.42;;;;;;;3.34;78.96;99518.75;1788829;80;20978;-37
2022/04/12 02:21:22;;;;;;;54.05;27.15;;;;;;;3.34;79.55;99523.10;1788795;80;20955;-38
2022/04/12 02:23:48;;;;;;;63.83;32.95;;;;;;;3.32;79.41;99527.03;1788846;80;20971;-38
2022/04/12 02:26:13;;;;;;;48.78;25.95;;;;;;;3.29;79.34;99538.78;1788842;80;21001;-37
2022/04/12 02:28:39;;;;;;;61.13;33.75;;;;;;;3.32;79.83;99531.38;1788815;80;21042;-36
2022/04/12 02:31:05;;;;;;;51.48;27.70;;;;;;;3.31;79.34;99531.84;1788830;80;21003;-37
2022/04/12 02:33:30;;;;;;;53.13;27.80;;;;;;;3.29;79.69;99536.19;1788898;80;21006;-36
2022/04/12 02:35:56;;;;;;;58.75;30.65;;;;;;;3.26;79.24;99542.31;1788965;80;21429;-38
2022/04/12 02:38:22;;;;;;;62.48;32.78;;;;;;;3.24;79.58;99547.15;1789003;80;21468;-37
2022/04/12 02:40:54;;;;;;;60.12;31.65;;;;;;;3.26;79.82;99542.77;1773143;79;21584;-38
2022/04/12 02:43:20;;;;;;;59.98;30.65;;;;;;;3.24;79.52;99540.66;1679559;84;21059;-38
2022/04/12 02:45:47;;;;;;;71.42;28.60;;;;;;;3.22;79.53;99542.41;1652958;87;21610;-39
2022/04/12 02:48:13;;;;;;;66.40;30.82;;;;;;;3.22;79.74;99538.50;1679794;85;21034;-38
2022/04/12 02:50:40;;;;;;;73.65;38.92;;;;;;;3.23;79.79;99546.72;1652952;87;21047;-36
2022/04/12 02:53:06;;;;;;;67.60;34.75;;;;;;;3.25;79.99;99547.55;1679740;85;21028;-38
2022/04/12 02:55:31;;;;;;;76.92;40.52;;;;;;;3.25;80.08;99553.59;1652756;86;22345;-36
2022/04/12 02:57:58;;;;;;;67.58;33.70;;;;;;;3.23;79.68;99544.97;1679840;85;20995;-37
2022/04/12 03:00:23;;;;;;;66.12;30.27;;;;;;;3.22;79.72;99543.70;1653055;87;21047;-36
2022/04/12 03:02:49;;;;;;;62.20;33.18;;;;;;;3.24;79.98;99544.55;1679739;85;20999;-37
2022/04/12 03:05:15;;;;;;;75.47;38.85;;;;;;;3.25;79.77;99545.79;1652928;87;21074;-39
2022/04/12 03:07:40;;;;;;;72.20;39.75;;;;;;;3.23;79.47;99549.33;1679795;85;20987;-38
2022/04/12 03:10:08;;;;;;;69.77;34.58;;;;;;;3.20;79.72;99546.36;1653069;87;21503;-38
2022/04/12 03:12:33;;;;;;;62.85;35.90;;;;;;;3.20;79.69;99548.08;1680959;85;21488;-39
2022/04/12 03:15:01;;;;;;;69.10;36.42;;;;;;;3.17;79.87;99550.31;1653950;87;21038;-37
2022/04/12 03:17:26;;;;;;;;;;;;;;;3.15;79.64;99546.05;1683324;83;21042;-38
2022/04/12 03:19:52;;;;;;;66.70;34.98;;;;;;;3.10;79.94;99552.63;1649455;87;20448;-39
2022/04/12 03:22:18;;;;;;;57.95;32.80;;;;;;;3.13;80.40;99555.59;1649424;87;20996;-37
2022/04/12 03:24:45;;;;;;;59.70;32.28;;;;;;;3.11;80.10;99559.97;1649493;87;21000;-36
2022/04/12 03:27:11;;;;;;;64.42;32.78;;;;;;;3.06;79.75;99553.13;1649769;87;20965;-37
2022/04/12 03:29:36;;;;;;;60.40;31.97;;;;;;;3.06;79.76;99554.42;1649522;87;21537;-37
2022/04/12 03:32:03;;;;;;;68.20;34.05;;;;;;;3.06;79.83;99553.13;1649484;87;20996;-39
2022/04/12 03:34:29;;;;;;;77.45;32.30;;;;;;;3.08;80.34;99553.10;1649717;86;21542;-37
2022/04/12 03:36:55;;;;;;;68.47;32.48;;;;;;;3.10;80.19;99550.02;1649502;87;20991;-38
2022/04/12 03:39:21;;;;;;;59.88;30.62;;;;;;;3.10;79.83;99551.33;1649442;87;21027;-36
2022/04/12 03:41:48;;;;;;;60.55;31.07;;;;;;;3.10;79.83;99551.78;1650182;85;21051;-37
2022/04/12 03:44:15;;;;;;;63.02;30.40;;;;;;;3.15;80.52;99552.55;1652726;85;21458;-38
2022/04/12 03:46:41;;;;;;;66.47;33.00;;;;;;;3.13;79.67;99553.88;1652593;87;20992;-36
2022/04/12 03:49:07;;;;;;;65.52;33.58;;;;;;;3.13;79.85;99555.59;1652636;86;20987;-39
2022/04/12 03:51:35;;;;;;;66.47;33.10;;;;;;;3.17;79.88;99563.76;1652550;85;20984;-38
2022/04/12 03:54:01;;;;;;;;;;;;;;;3.19;79.63;99561.53;1655132;87;21004;-37
2022/04/12 03:56:28;;;;;;;65.83;33.58;;;;;;;3.16;79.78;99564.18;1652574;87;20428;-37
2022/04/12 03:58:54;;;;;;;72.58;36.58;;;;;;;3.15;79.14;99561.64;1652540;87;21023;-39
2022/04/12 04:01:19;;;;;;;73.67;35.73;;;;;;;3.13;79.34;99564.27;1652505;86;21004;-38
2022/04/12 04:03:45;;;;;;;72.85;36.35;;;;;;;3.12;79.41;99568.19;1652550;86;20964;-37
2022/04/12 04:06:11;;;;;;;68.35;34.60;;;;;;;3.11;79.64;99570.36;1652633;86;20961;-37
2022/04/12 04:08:38;;;;;;;66.65;32.95;;;;;;;3.12;80.40;99574.23;1652601;86;20960;-41
2022/04/12 04:11:03;;;;;;;67.77;32.03;;;;;;;3.14;79.64;99578.11;1652892;87;20992;-37
2022/04/12 04:13:36;;;;;;;74.32;33.85;;;;;;;3.12;80.01;99578.58;1652589;87;21497;-36
2022/04/12 04:16:00;;;;;;;78.17;34.85;;;;;;;3.07;79.59;99577.36;1652788;85;20976;-37
2022/04/12 04:18:27;;;;;;;73.60;34.83;;;;;;;3.07;79.37;99580.84;1652633;87;21075;-36
2022/04/12 04:20:53;;;;;;;73.07;34.53;;;;;;;3.07;79.75;99582.14;1652659;87;21506;-37
2022/04/12 04:23:18;;;;;;;67.45;32.33;;;;;;;3.10;79.93;99586.41;1652488;87;20984;-36
2022/04/12 04:25:44;;;;;;;81.82;35.05;;;;;;;3.15;80.53;99587.63;1652553;86;21023;-38
2022/04/12 04:28:12;;;;;;;71.80;34.95;;;;;;;3.16;80.11;99591.47;1652560;86;20969;-38
2022/04/12 04:30:44;;;;;;;;;;;;;;;3.19;80.15;99593.16;1655016;85;20984;-37
2022/04/12 04:33:07;;;;;;;87.47;34.65;;;;;;;3.16;80.53;99599.72;1676470;85;20102;-38
2022/04/12 04:35:33;;;;;;;88.10;36.25;;;;;;;3.21;80.51;99597.88;1665879;86;21058;-38
2022/04/12 04:37:59;;;;;;;69.90;34.38;;;;;;;3.26;80.29;99603.40;1681511;85;20967;-37
2022/04/12 04:40:24;;;;;;;82.20;34.98;;;;;;;3.31;80.61;99600.72;1677139;85;20999;-38
2022/04/12 04:42:53;;;;;;;78.28;35.38;;;;;;;3.34;80.28;99599.78;1661575;86;21650;-37
2022/04/12 04:45:20;;;;;;;69.85;34.78;;;;;;;3.39;79.86;99596.65;1680764;85;20998;-36
2022/04/12 04:47:52;;;;;;;85.33;34.63;;;;;;;3.40;80.02;99600.52;1654298;87;21056;-38
2022/04/12 04:50:21;;;;;;;92.50;37.38;;;;;;;3.43;80.01;99600.44;1680111;85;20999;-37
2022/04/12 04:52:47;;;;;;;105.95;40.75;;;;;;;3.46;79.92;99605.58;1653915;86;21482;-38
2022/04/12 04:55:14;;;;;;;101.62;42.30;;;;;;;3.49;80.06;99608.55;1680837;85;21434;-37
2022/04/12 04:57:41;;;;;;;101.93;39.67;;;;;;;3.54;79.91;99609.31;1654131;87;21059;-38
2022/04/12 05:00:17;;;;;;;89.97;38.17;;;;;;;3.60;79.82;99614.82;1680899;85;22167;-38
2022/04/12 05:02:48;;;;;;;94.28;37.85;;;;;;;3.62;79.99;99612.61;1653910;87;21023;-37
2022/04/12 05:05:15;;;;;;;86.12;37.55;;;;;;;3.62;80.17;99612.61;1680742;85;21547;-36
2022/04/12 05:07:47;;;;;;;90.35;37.88;;;;;;;3.66;80.39;99613.41;1654107;86;21008;-38
2022/04/12 05:10:18;;;;;;;80.55;38.53;;;;;;;3.71;80.47;99618.06;1680669;85;21003;-36
2022/04/12 05:12:44;;;;;;;80.15;36.55;;;;;;;3.75;80.14;99619.70;1683201;85;21700;-35
2022/04/12 05:15:11;;;;;;;77.40;36.50;;;;;;;3.79;79.89;99628.30;1653987;87;21401;-36
2022/04/12 05:17:36;;;;;;;77.53;34.90;;;;;;;3.83;79.73;99630.78;1680691;85;21022;-36
2022/04/12 05:20:05;;;;;;;76.70;35.90;;;;;;;3.87;80.01;99629.42;1653898;86;21019;-36
2022/04/12 05:22:31;;;;;;;77.30;35.08;;;;;;;3.90;80.32;99633.27;1680750;85;21026;-36
2022/04/12 05:24:57;;;;;;;77.85;35.55;;;;;;;3.93;80.08;99634.05;1653913;86;21042;-36
2022/04/12 05:27:22;;;;;;;70.60;32.78;;;;;;;3.97;79.90;99640.04;1680692;85;20991;-38
2022/04/12 05:29:49;;;;;;;70.83;34.80;;;;;;;4.00;79.68;99642.13;1654053;87;21003;-37
2022/04/12 05:32:15;;;;;;;73.15;33.00;;;;;;;4.05;79.56;99638.10;1680887;85;21080;-37
2022/04/12 05:34:42;;;;;;;69.72;32.67;;;;;;;4.10;79.47;99635.41;1654121;87;21504;-37
2022/04/12 05:37:09;;;;;;;69.72;32.80;;;;;;;4.14;79.62;99636.58;1680854;85;21034;-37
2022/04/12 05:39:35;;;;;;;72.82;31.85;;;;;;;4.19;79.59;99643.84;1654081;87;21551;-39
2022/04/12 05:42:02;;;;;;;69.90;32.20;;;;;;;4.25;79.35;99640.69;1680707;85;20999;-37
2022/04/12 05:44:32;;;;;;;61.48;32.38;;;;;;;4.29;79.36;99649.67;1654157;86;21011;-38
2022/04/12 05:46:57;;;;;;;55.30;31.15;;;;;;;4.33;79.22;99646.55;1680980;83;20986;-37
2022/04/12 05:49:23;;;;;;;49.40;27.77;;;;;;;4.38;78.94;99649.91;1654024;87;21431;-36
2022/04/12 05:51:48;;;;;;;56.28;29.45;;;;;;;4.43;78.65;99646.75;1680905;85;20995;-39
2022/04/12 05:54:14;;;;;;;58.87;28.75;;;;;;;4.49;78.47;99646.59;1653993;87;21031;-37
2022/04/12 05:56:40;;;;;;;56.60;29.65;;;;;;;4.55;78.14;99649.06;1680887;85;21043;-38
2022/04/12 05:59:08;;;;;;;59.05;29.00;;;;;;;4.60;77.70;99657.62;1654099;86;20988;-38
2022/04/12 06:01:34;;;;;;;46.18;26.25;;;;;;;4.64;77.93;99659.70;1680807;85;20994;-38
2022/04/12 06:04:00;;;;;;;42.98;23.20;;;;;;;4.69;77.44;99656.51;1654028;87;21019;-38
2022/04/12 06:06:27;;;;;;;43.13;23.25;;;;;;;4.75;77.07;99662.04;1680779;85;21034;-39
2022/04/12 06:08:53;;;;;;;39.80;22.37;;;;;;;4.82;76.49;99660.98;1654319;87;20987;-38
2022/04/12 06:11:20;;;;;;;40.78;20.35;;;;;;;4.90;76.19;99660.78;1680906;85;21718;-37
2022/04/12 06:13:45;;;;;;;42.90;18.92;;;;;;;4.99;75.83;99661.38;1654030;87;21012;-38
2022/04/12 06:16:11;;;;;;;39.73;22.10;;;;;;;5.08;75.12;99667.27;1680820;85;21030;-39
2022/04/12 06:18:38;;;;;;;54.77;24.35;;;;;;;5.16;75.06;99665.28;1654056;87;21015;-37
2022/04/12 06:21:04;;;;;;;50.65;24.05;;;;;;;5.18;74.21;99660.45;1681042;85;20991;-39
2022/04/12 06:23:29;;;;;;;41.77;22.42;;;;;;;5.26;74.59;99661.55;1654082;87;21004;-36
2022/04/12 06:25:55;;;;;;;58.63;23.35;;;;;;;5.35;74.62;99666.50;1680882;85;20991;-37
2022/04/12 06:28:21;;;;;;;41.75;22.17;;;;;;;5.47;74.43;99668.35;1654060;86;21015;-37
2022/04/12 06:30:48;;;;;;;44.23;22.67;;;;;;;5.56;73.85;99675.91;1680884;85;21447;-38
2022/04/12 06:33:15;;;;;;;44.30;21.85;;;;;;;5.62;73.00;99673.14;1654134;87;21023;-37
2022/04/12 06:35:40;;;;;;;40.45;21.05;;;;;;;5.68;72.67;99671.66;1680774;85;20998;-37
2022/04/12 06:38:08;;;;;;;39.48;19.77;;;;;;;5.75;72.52;99674.95;1653984;87;21059;-39
2022/04/12 06:40:35;;;;;;;40.30;18.48;;;;;;;5.81;72.13;99676.52;1680970;85;20991;-41
2022/04/12 06:43:01;;;;;;;30.37;17.10;;;;;;;5.85;69.96;99677.67;1653606;87;21039;-36
2022/04/12 06:45:28;;;;;;;25.97;14.70;;;;;;;5.89;69.31;99677.97;1693397;85;21002;-39
2022/04/12 06:47:58;;;;;;;30.40;14.55;;;;;;;5.93;68.80;99672.21;1693486;84;21525;-37
2022/04/12 06:50:24;;;;;;;21.95;11.38;;;;;;;5.95;67.86;99673.05;1693428;85;21429;-37
2022/04/12 06:52:51;;;;;;;23.27;12.33;;;;;;;5.96;66.32;99676.92;1693359;85;21041;-37
2022/04/12 06:55:16;;;;;;;25.10;12.15;;;;;;;5.99;66.08;99682.52;1694634;83;21498;-37
2022/04/12 06:57:43;;;;;;;30.97;13.32;;;;;;;6.01;67.08;99674.65;1693683;83;21006;-36
2022/04/12 07:00:10;;;;;;;28.02;12.88;;;;;;;6.04;66.84;99678.45;1658918;86;20996;-37
2022/04/12 07:02:37;;;;;;;24.32;12.25;;;;;;;6.07;65.46;99679.20;1693270;84;21038;-37
2022/04/12 07:05:05;;;;;;;19.60;10.32;;;;;;;6.12;65.77;99678.63;1658789;86;21007;-36
2022/04/12 07:07:32;;;;;;;18.87;10.48;;;;;;;6.20;65.83;99682.30;1693259;84;20974;-37
2022/04/12 07:09:58;;;;;;;76.72;14.53;;;;;;;6.22;64.39;99680.95;1693254;85;21014;-40
2022/04/12 07:12:28;;;;;;;35.55;11.28;;;;;;;6.27;64.62;99685.58;1658651;86;21208;-39
2022/04/12 07:14:52;;;;;;;14.53;7.83;;;;;;;6.31;65.17;99684.58;1692766;84;21029;-37
2022/04/12 07:17:18;;;;;;;15.43;7.53;;;;;;;6.38;63.82;99690.47;1693200;85;20963;-39
2022/04/12 07:19:44;;;;;;;19.48;7.92;;;;;;;6.42;62.28;99698.17;1658675;86;20991;-38
2022/04/12 07:22:10;;;;;;;13.08;7.45;;;;;;;6.49;63.41;99693.16;1693167;85;20955;-39
2022/04/12 07:24:36;;;;;;;8.48;4.80;;;;;;;6.56;62.43;99695.56;1693218;84;21006;-39
2022/04/12 07:27:02;;;;;;;9.30;4.42;;;;;;;6.62;60.94;99697.96;1693324;85;20997;-40
2022/04/12 07:29:29;;;;;;;7.20;4.78;;;;;;;6.72;60.91;99695.46;1692517;84;21267;-40
2022/04/12 07:31:56;;;;;;;10.78;3.95;;;;;;;6.81;59.20;99699.08;1691927;85;21054;-39
2022/04/12 07:34:22;;;;;;;7.33;4.53;;;;;;;6.91;58.19;99697.88;1659344;84;21033;-37
2022/04/12 07:36:53;;;;;;;12.40;4.45;;;;;;;7.05;57.63;99699.16;1657661;86;21514;-38
2022/04/12 07:39:17;;;;;;;10.30;5.00;;;;;;;7.09;57.43;99699.01;1657054;86;21003;-37
2022/04/12 07:41:43;;;;;;;8.88;4.78;;;;;;;7.21;56.98;99695.56;1657639;86;20968;-39
2022/04/12 07:44:08;;;;;;;6.83;4.03;;;;;;;7.37;58.10;99706.31;1615364;86;21047;-39
2022/04/12 07:46:34;;;;;;;9.05;4.85;;;;;;;7.46;56.63;99702.09;1695055;84;21555;-37
2022/04/12 07:49:00;;;;;;;8.93;3.65;;;;;;;7.47;54.54;99702.01;1667294;84;21504;-38
2022/04/12 07:51:26;;;;;;;6.00;3.67;;;;;;;7.59;54.81;99700.73;1631283;86;21022;-37
2022/04/12 07:53:52;;;;;;;6.28;4.42;;;;;;;7.77;54.87;99696.58;1659831;86;21156;-39
2022/04/12 07:56:18;;;;;;;9.15;5.15;;;;;;;7.94;53.27;99693.32;1656176;86;21084;-37
2022/04/12 07:58:44;;;;;;;10.10;4.90;;;;;;;8.16;54.21;99699.05;1637593;86;21112;-38
2022/04/12 08:01:10;;;;;;;9.18;4.72;;;;;;;8.26;51.04;99699.94;1634354;86;21575;-37
2022/04/12 08:03:36;;;;;;;8.70;4.20;;;;;;;8.44;51.52;99693.16;1674349;86;21020;-40
2022/04/12 08:06:03;;;;;;;10.58;4.40;;;;;;;8.58;52.03;99704.84;1705393;83;21000;-39
2022/04/12 08:08:29;;;;;;;8.60;3.98;;;;;;;8.72;50.14;99700.36;1667132;86;21006;-39
2022/04/12 08:10:55;;;;;;;9.70;3.33;;;;;;;8.90;50.59;99703.98;1667170;85;21538;-37
2022/04/12 08:13:21;;;;;;;4.85;3.55;;;;;;;9.00;48.08;99707.91;1707263;84;21007;-37
2022/04/12 08:15:46;;;;;;;4.50;3.37;;;;;;;9.03;48.66;99699.92;1707182;84;21091;-38
2022/04/12 08:18:13;;;;;;;5.78;3.17;;;;;;;9.08;48.61;99697.96;1707057;84;21452;-39
2022/04/12 08:20:39;;;;;;;4.25;3.00;;;;;;;9.27;49.48;99703.26;1707365;84;21000;-39
2022/04/12 08:23:05;;;;;;;4.87;2.70;;;;;;;9.08;45.91;99708.45;1707032;84;21475;-38
2022/04/12 08:25:31;;;;;;;9.43;2.60;;;;;;;9.32;46.31;99703.91;1707370;83;21050;-37
2022/04/12 08:27:56;;;;;;;3.87;2.67;;;;;;;9.52;46.05;99701.73;1707177;83;20979;-39
2022/04/12 08:30:23;;;;;;;3.27;2.47;;;;;;;9.76;46.52;99705.48;1707220;84;21008;-36
2022/04/12 08:32:48;;;;;;;5.58;3.17;;;;;;;9.80;41.45;99709.67;1707211;84;20998;-39
2022/04/12 08:35:14;;;;;;;3.42;2.30;;;;;;;9.78;44.57;99706.27;1707101;84;21489;-37
2022/04/12 08:37:41;;;;;;;4.08;2.58;;;;;;;9.77;43.47;99712.45;1703914;84;21027;-39
2022/04/12 08:40:07;;;;;;;5.17;2.60;;;;;;;9.79;43.62;99711.92;1676992;84;21003;-39
2022/04/12 08:42:33;;;;;;;5.95;2.80;;;;;;;9.89;43.10;99709.25;1674665;84;21064;-40
2022/04/12 08:45:03;;;;;;;5.60;2.60;;;;;;;9.96;41.46;99713.77;1711257;83;21042;-37
2022/04/12 08:47:32;;;;;;;4.12;2.20;;;;;;;10.12;42.83;99709.98;1711833;83;21002;-37
2022/04/12 08:50:00;;;;;;;3.65;2.45;;;;;;;10.23;41.92;99716.89;1711695;84;21058;-38
2022/04/12 08:52:26;;;;;;;3.08;2.20;;;;;;;10.28;41.48;99718.84;1711755;83;20978;-38
2022/04/12 08:54:53;;;;;;;6.22;2.30;;;;;;;10.40;41.24;99716.59;1665325;85;21016;-39
2022/04/12 08:57:19;;;;;;;4.42;3.00;;;;;;;10.56;38.05;99709.66;1711537;84;20998;-37
2022/04/12 08:59:47;;;;;;;4.62;3.05;;;;;;;10.52;38.36;99713.38;1665000;86;21052;-38
2022/04/12 09:02:12;;;;;;;;;;;;;;;10.82;40.95;99720.21;1714066;83;20967;-40
2022/04/12 09:04:39;;;;;;;11.05;3.47;;;;;;;10.99;37.61;99727.29;1711983;83;20105;-38
2022/04/12 09:07:10;;;;;;;8.30;3.27;;;;;;;11.16;40.27;99714.58;1712031;84;20990;-39
2022/04/12 09:09:39;;;;;;;8.20;3.60;;;;;;;11.35;41.35;99725.04;1711997;83;21033;-39
2022/04/12 09:12:14;;;;;;;4.10;2.90;;;;;;;11.47;38.65;99724.38;1711871;83;20990;-38
2022/04/12 09:14:45;;;;;;;18.40;4.87;;;;;;;11.81;40.73;99719.13;1712026;83;21041;-38
2022/04/12 09:17:14;;;;;;;6.50;3.60;;;;;;;12.10;37.52;99719.75;1711865;83;21491;-38
2022/04/12 09:19:47;;;;;;;5.12;3.20;;;;;;;12.80;39.53;99716.70;1712046;83;20990;-41
2022/04/12 09:22:20;;;;;;;4.95;3.02;;;;;;;13.20;36.22;99713.53;1712132;83;21471;-39
2022/04/12 09:24:57;;;;;;;5.65;2.65;;;;;;;13.70;35.05;99713.63;1711863;83;21451;-40
2022/04/12 09:27:26;;;;;;;9.43;2.70;;;;;;;14.36;34.01;99708.62;1711740;83;20989;-40
2022/04/12 09:29:56;;;;;;;4.58;2.67;;;;;;;14.72;31.43;99701.92;1711044;83;21073;-40
2022/04/12 09:32:25;;;;;;;4.62;3.02;;;;;;;15.35;35.05;99694.56;1710938;83;21050;-37
2022/04/12 09:34:53;;;;;;;5.15;3.00;;;;;;;15.81;29.39;99694.97;1710985;83;20994;-40
2022/04/12 09:37:25;;;;;;;2.80;2.55;;;;;;;16.25;30.84;99696.27;1712009;83;21058;-38
2022/04/12 09:40:08;;;;;;;4.80;2.75;;;;;;;16.85;34.88;99691.41;1710233;83;20982;-41
2022/04/12 09:42:45;;;;;;;5.83;2.70;;;;;;;17.05;32.23;99689.90;1693808;83;20994;-41
2022/04/12 09:45:14;;;;;;;4.03;2.60;;;;;;;17.39;27.70;99687.33;1679155;85;21041;-41
2022/04/12 09:47:41;;;;;;;14.05;3.02;;;;;;;17.67;26.21;99690.48;1664019;86;21008;-39
2022/04/12 09:50:09;;;;;;;4.40;2.98;;;;;;;18.21;31.22;99687.59;1664223;85;21490;-39
2022/04/12 09:52:35;;;;;;;4.83;3.08;;;;;;;18.42;29.73;99685.81;1664102;86;21057;-41
2022/04/12 09:55:01;;;;;;;4.27;2.70;;;;;;;18.21;25.75;99684.92;1664390;86;21051;-43
2022/04/12 09:57:28;;;;;;;3.60;2.42;;;;;;;18.74;28.87;99692.14;1655712;85;21394;-39
2022/04/12 09:59:56;;;;;;;7.67;2.67;;;;;;;19.05;29.72;99690.45;1654173;86;20986;-40
2022/04/12 10:02:25;;;;;;;7.17;3.47;;;;;;;18.76;26.61;99683.04;1654009;85;20994;-41
2022/04/12 10:04:52;;;;;;;12.07;3.25;;;;;;;18.15;26.62;99693.38;1654004;85;21017;-40
2022/04/12 10:07:21;;;;;;;4.50;3.25;;;;;;;17.71;28.64;99687.10;1653292;86;21044;-38
2022/04/12 10:09:50;;;;;;;6.20;3.98;;;;;;;16.89;27.97;99684.89;1663616;85;21537;-38
2022/04/12 10:12:17;;;;;;;4.65;3.20;;;;;;;15.89;28.62;99693.97;1683484;85;21039;-40
2022/04/12 10:14:44;;;;;;;4.90;3.00;;;;;;;15.71;29.30;99694.75;1683541;85;20994;-37
2022/04/12 10:17:12;;;;;;;4.00;2.50;;;;;;;15.95;29.67;99692.20;1683646;85;20971;-41
2022/04/12 10:19:40;;;;;;;6.25;2.58;;;;;;;16.72;29.11;99687.95;1683469;85;21437;-41
2022/04/12 10:22:06;;;;;;;4.75;2.60;;;;;;;17.08;28.74;99683.03;1683570;85;21047;-40
2022/04/12 10:24:33;;;;;;;5.63;2.70;;;;;;;17.80;26.84;99678.39;1683298;85;21026;-38
2022/04/12 10:27:00;;;;;;;7.60;2.98;;;;;;;18.34;27.29;99682.95;1683404;85;21042;-41
2022/04/12 10:29:26;;;;;;;4.35;3.50;;;;;;;18.99;23.38;99677.62;1682891;85;21507;-39
2022/04/12 10:32:02;;;;;;;5.53;2.77;;;;;;;19.56;25.51;99680.80;1679304;85;21185;-40
2022/04/12 10:34:29;;;;;;;7.35;2.98;;;;;;;20.05;23.78;99681.02;1677507;85;21046;-40
2022/04/12 10:37:04;;;;;;;7.17;2.80;;;;;;;20.51;23.05;99679.55;1676658;85;21007;-43
2022/04/12 10:39:44;;;;;;;5.12;2.42;;;;;;;21.44;24.79;99671.38;1678128;85;21584;-41
2022/04/12 10:42:18;;;;;;;4.72;2.40;;;;;;;21.38;20.67;99673.31;1679540;85;20963;-41
2022/04/12 10:44:49;;;;;;;4.15;3.12;;;;;;;21.95;20.11;99673.26;1677620;85;21567;-39
2022/04/12 10:47:38;;;;;;;3.42;2.00;;;;;;;22.58;20.88;99672.47;1675228;85;21575;-42
2022/04/12 10:50:10;;;;;;;6.80;2.80;;;;;;;22.79;20.92;99675.33;1676458;85;21039;-38
2022/04/12 10:52:47;;;;;;;3.25;2.35;;;;;;;22.48;18.06;99674.38;1676276;85;21023;-40
2022/04/12 10:55:16;;;;;;;2.80;2.30;;;;;;;23.55;17.69;99665.84;1677160;85;21047;-41
2022/04/12 10:57:43;;;;;;;2.95;2.22;;;;;;;23.16;17.21;99667.63;1677010;85;21035;-37
2022/04/12 11:00:15;;;;;;;6.10;2.80;;;;;;;23.37;18.81;99666.73;1676099;85;21026;-39
2022/04/12 11:02:56;;;;;;;4.95;2.00;;;;;;;24.10;20.27;99664.13;1677037;85;21031;-43
2022/04/12 11:05:43;;;;;;;3.85;1.98;;;;;;;23.80;17.68;99664.67;1677089;85;21063;-38
2022/04/12 11:08:20;;;;;;;3.98;2.00;;;;;;;23.55;16.14;99667.19;1677118;85;21489;-39
2022/04/12 11:10:58;;;;;;;4.60;1.87;;;;;;;24.00;16.54;99667.95;1677080;85;21007;-38
2022/04/12 11:13:29;;;;;;;3.77;2.35;;;;;;;24.86;18.01;99662.23;1677381;85;21611;-41
2022/04/12 11:15:59;;;;;;;3.42;2.10;;;;;;;25.01;16.20;99661.55;1680051;85;21042;-40
2022/04/12 11:18:53;;;;;;;8.23;2.05;;;;;;;25.65;17.62;99664.34;1681213;85;21019;-38
2022/04/12 11:21:29;;;;;;;3.95;2.17;;;;;;;25.79;16.48;99660.07;1680751;85;21332;-39
2022/04/12 11:24:01;;;;;;;3.17;2.22;;;;;;;26.10;15.77;99658.77;1676922;85;21098;-40
2022/04/12 11:26:51;;;;;;;16.23;2.90;;;;;;;26.93;16.63;99660.45;1680283;85;20999;-40
2022/04/12 11:29:23;;;;;;;4.03;2.30;;;;;;;26.68;14.44;99656.58;1680123;85;21129;-38
2022/04/12 11:31:54;;;;;;;7.87;2.67;;;;;;;26.67;15.38;99658.97;1680833;85;21031;-38
2022/04/12 11:34:22;;;;;;;4.25;2.50;;;;;;;26.92;16.66;99657.41;1680334;84;21021;-41
2022/04/12 11:36:54;;;;;;;6.17;2.62;;;;;;;27.09;15.85;99657.59;1680290;85;21013;-38